createdAt,value
2022-11-23T15:25:56.462Z,9.30
2022-11-23T15:28:26.694Z,7.43
2022-11-23T15:30:58.296Z,7.57
2022-11-23T15:33:26.426Z,7.63
2022-11-23T15:35:54.697Z,8.93
2022-11-23T15:38:23.911Z,4.22
2022-11-23T15:40:51.827Z,5.78
2022-11-23T15:43:20.160Z,6.78
2022-11-23T15:45:47.313Z,9.35
2022-11-23T15:48:22.323Z,13.27
2022-11-23T15:50:53.580Z,10.02
2022-11-23T15:53:22.589Z,7.53
2022-11-23T15:55:50.288Z,6.38
2022-11-23T15:58:18.626Z,6.70
2022-11-23T16:00:56.895Z,5.82
2022-11-23T16:03:24.062Z,6.18
2022-11-23T16:06:10.310Z,6.05
2022-11-23T16:08:38.210Z,5.88
2022-11-23T16:11:06.043Z,5.15
2022-11-23T16:13:40.135Z,6.95
2022-11-23T16:16:09.849Z,7.32
2022-11-23T16:18:36.998Z,7.75
2022-11-23T16:21:05.077Z,12.50
2022-11-23T16:23:46.092Z,10.32
2022-11-23T16:26:14.077Z,9.15
2022-11-23T16:28:48.625Z,9.02
2022-11-23T16:31:34.212Z,8.52
2022-11-23T16:34:01.473Z,9.88
2022-11-23T16:36:28.726Z,9.77
2022-11-23T16:38:59.722Z,11.23
2022-11-23T16:41:29.622Z,12.95
2022-11-23T16:43:56.719Z,11.95
2022-11-23T16:46:23.837Z,15.13
2022-11-23T16:48:53.894Z,13.02
2022-11-23T16:51:21.064Z,10.30
2022-11-23T16:54:12.540Z,10.10
2022-11-23T16:56:35.565Z,11.32
2022-11-23T16:59:02.783Z,9.10
2022-11-23T17:01:31.438Z,9.18
2022-11-23T17:03:58.909Z,8.45
2022-11-23T17:06:26.080Z,10.18
2022-11-23T17:09:00.587Z,10.68
2022-11-23T17:11:33.586Z,12.65
2022-11-23T17:14:00.710Z,11.68
2022-11-23T17:16:27.826Z,9.95
2022-11-23T17:18:54.973Z,8.13
2022-11-23T17:21:22.082Z,10.63
2022-11-23T17:23:49.170Z,8.60
2022-11-23T17:26:30.216Z,8.05
2022-11-23T17:28:57.800Z,8.23
2022-11-23T17:31:24.962Z,7.85
2022-11-23T17:33:52.170Z,8.35
2022-11-23T17:36:19.375Z,8.98
2022-11-23T17:38:49.345Z,10.10
2022-11-23T17:41:17.009Z,10.00
2022-11-23T17:43:44.171Z,9.05
2022-11-23T17:46:16.919Z,9.80
2022-11-23T17:48:44.174Z,9.23
2022-11-23T17:51:12.848Z,9.70
2022-11-23T17:53:40.333Z,9.77
2022-11-23T17:56:07.739Z,9.90
2022-11-23T17:58:35.435Z,8.70
2022-11-23T18:01:02.600Z,10.43
2022-11-23T18:03:29.754Z,8.75
2022-11-23T18:05:56.863Z,8.93
2022-11-23T18:08:23.966Z,8.18
2022-11-23T18:10:53.835Z,8.93
2022-11-23T18:13:24.877Z,8.30
2022-11-23T18:15:52.890Z,7.78
2022-11-23T18:18:20.430Z,7.57
2022-11-23T18:20:48.197Z,7.60
2022-11-23T18:23:15.343Z,10.02
2022-11-23T18:25:42.441Z,9.93
2022-11-23T18:28:09.615Z,7.25
2022-11-23T18:30:36.730Z,8.13
2022-11-23T18:33:03.905Z,7.43
2022-11-23T18:35:30.995Z,8.50
2022-11-23T18:37:58.150Z,9.60
2022-11-23T18:40:25.635Z,11.45
2022-11-23T18:42:52.926Z,10.55
2022-11-23T18:45:20.642Z,10.82
2022-11-23T18:47:47.771Z,9.88
2022-11-23T18:50:14.892Z,10.15
2022-11-23T18:52:41.995Z,12.50
2022-11-23T18:55:09.521Z,13.90
2022-11-23T18:57:36.686Z,13.15
2022-11-23T19:00:05.851Z,12.73
2022-11-23T19:02:33.398Z,10.43
2022-11-23T19:05:00.606Z,11.23
2022-11-23T19:07:27.810Z,10.55
2022-11-23T19:09:55.043Z,13.20
2022-11-23T19:12:22.289Z,11.45
2022-11-23T19:14:49.880Z,11.65
2022-11-23T19:17:17.401Z,8.93
2022-11-23T19:19:44.494Z,10.13
2022-11-23T19:22:11.623Z,11.18
2022-11-23T19:24:38.863Z,9.02
2022-11-23T19:27:06.201Z,7.05
2022-11-23T19:29:33.466Z,7.18
2022-11-23T19:32:00.695Z,8.23
2022-11-23T19:34:27.784Z,9.02
2022-11-23T19:36:54.980Z,6.35
2022-11-23T19:39:22.211Z,6.97
2022-11-23T19:41:49.470Z,6.15
2022-11-23T19:44:16.624Z,5.13
2022-11-23T19:46:43.765Z,6.38
2022-11-23T19:49:11.126Z,6.60
2022-11-23T19:51:38.509Z,4.35
2022-11-23T19:54:06.133Z,5.85
2022-11-23T19:56:33.244Z,4.88
2022-11-23T19:59:01.905Z,5.03
2022-11-23T20:01:32.000Z,4.70
2022-11-23T20:04:07.884Z,5.68
2022-11-23T20:06:37.278Z,5.60
2022-11-23T20:09:06.076Z,4.93
2022-11-23T20:11:33.734Z,4.90
2022-11-23T20:14:01.514Z,5.78
2022-11-23T20:16:29.412Z,5.38
2022-11-23T20:19:00.828Z,5.00
2022-11-23T20:21:28.561Z,6.03
2022-11-23T20:24:02.812Z,5.63
2022-11-23T20:26:31.550Z,4.82
2022-11-23T20:28:59.274Z,5.50
2022-11-23T20:31:27.713Z,5.30
2022-11-23T20:33:55.226Z,4.93
2022-11-23T20:36:23.498Z,5.57
2022-11-23T20:38:51.077Z,4.53
2022-11-23T20:41:20.184Z,4.53
2022-11-23T20:43:49.011Z,5.65
2022-11-23T20:46:31.715Z,5.05
2022-11-23T20:49:03.383Z,5.28
2022-11-23T20:51:30.979Z,4.95
2022-11-23T20:53:58.567Z,5.22
2022-11-23T20:56:27.419Z,5.22
2022-11-23T20:58:55.637Z,5.07
2022-11-23T21:01:23.007Z,4.95
2022-11-23T21:03:51.917Z,5.25
2022-11-23T21:06:19.118Z,5.28
2022-11-23T21:08:47.034Z,5.75
2022-11-23T21:11:34.584Z,5.82
2022-11-23T21:14:14.047Z,4.93
2022-11-23T21:16:52.821Z,6.50
2022-11-23T21:19:21.285Z,4.88
2022-11-23T21:21:48.881Z,5.47
2022-11-23T21:24:16.452Z,5.43
2022-11-23T21:26:43.576Z,5.28
2022-11-23T21:29:11.474Z,6.22
2022-11-23T21:31:39.661Z,7.10
2022-11-23T21:34:10.458Z,7.22
2022-11-23T21:36:39.189Z,6.40
2022-11-23T21:39:07.951Z,7.65
2022-11-23T21:41:35.634Z,6.40
2022-11-23T21:44:02.958Z,6.88
2022-11-23T21:46:30.338Z,6.30
2022-11-23T21:48:58.273Z,6.05
2022-11-23T21:51:26.830Z,6.20
2022-11-23T21:53:54.374Z,6.43
2022-11-23T21:56:21.880Z,6.97
2022-11-23T21:58:48.958Z,5.68
2022-11-23T22:01:20.215Z,5.80
2022-11-23T22:03:52.160Z,5.80
2022-11-23T22:06:20.875Z,7.90
2022-11-23T22:08:52.329Z,6.82
2022-11-23T22:11:24.498Z,6.20
2022-11-23T22:13:58.920Z,6.28
2022-11-23T22:16:27.633Z,5.25
2022-11-23T22:18:56.023Z,6.28
2022-11-23T22:21:24.849Z,6.72
2022-11-23T22:23:52.248Z,6.47
2022-11-23T22:26:19.960Z,5.30
2022-11-23T22:28:48.364Z,5.55
2022-11-23T22:31:16.966Z,5.85
2022-11-23T22:33:44.420Z,6.63
2022-11-23T22:36:21.934Z,5.93
2022-11-23T22:38:49.494Z,4.97
2022-11-23T22:41:17.869Z,5.05
2022-11-23T22:43:45.310Z,5.07
2022-11-23T22:46:14.179Z,6.05
2022-11-23T22:48:42.794Z,6.03
2022-11-23T22:51:11.831Z,5.05
2022-11-23T22:53:44.452Z,5.82
2022-11-23T22:56:16.313Z,6.03
2022-11-23T22:58:44.587Z,5.43
2022-11-23T23:01:17.526Z,6.05
2022-11-23T23:03:45.192Z,5.60
2022-11-23T23:06:16.895Z,5.68
2022-11-23T23:08:44.364Z,5.40
2022-11-23T23:11:11.715Z,5.13
2022-11-23T23:13:39.034Z,5.32
2022-11-23T23:16:10.920Z,5.63
2022-11-23T23:18:38.174Z,5.85
2022-11-23T23:21:10.676Z,5.50
2022-11-23T23:23:48.675Z,6.13
2022-11-23T23:26:17.230Z,5.70
2022-11-23T23:28:44.434Z,6.00
2022-11-23T23:31:13.993Z,6.25
2022-11-23T23:33:41.600Z,5.25
2022-11-23T23:36:12.900Z,4.90
2022-11-23T23:38:40.785Z,5.13
2022-11-23T23:41:08.895Z,6.35
2022-11-23T23:43:36.502Z,5.70
2022-11-23T23:46:05.451Z,5.50
2022-11-23T23:48:33.884Z,6.05
2022-11-23T23:51:30.627Z,6.55
2022-11-23T23:53:58.238Z,5.78
2022-11-23T23:56:27.212Z,5.15
2022-11-23T23:58:59.094Z,5.65
